Time;durP1;ratioP1;P1;durP2;ratioP2;P2;SDS_P1;SDS_P2;PMS_P1;PMS_P2;Temp;Humidity;BMP_temperature;BMP_pressure;BME280_temperature;BME280_humidity;BME280_pressure;Samples;Min_cycle;Max_cycle;Signal;HPM_P1;HPM_P2
2022/03/28 00:01:40;;;;;;;13.15;8.38;;;;;;;;;;5056406;28;20201;-65
2022/03/28 00:04:06;;;;;;;13.18;8.02;;;;;;;;;;5056395;28;20213;-67
2022/03/28 00:06:33;;;;;;;12.23;8.70;;;;;;;;;;5056061;28;21165;-65
2022/03/28 00:08:59;;;;;;;13.35;8.57;;;;;;;;;;5056061;28;20634;-67
2022/03/28 00:11:26;;;;;;;12.43;8.00;;;;;;;;;;5056227;28;20209;-67
2022/03/28 00:13:54;;;;;;;13.10;7.65;;;;;;;;;;5057966;28;20209;-66
2022/03/28 00:16:20;;;;;;;14.73;9.35;;;;;;;;;;5059919;28;20523;-66
2022/03/28 00:18:48;;;;;;;11.40;8.52;;;;;;;;;;5059738;28;20570;-66
2022/03/28 00:21:14;;;;;;;14.10;8.68;;;;;;;;;;5060006;28;20551;-66
2022/03/28 00:23:40;;;;;;;14.23;8.95;;;;;;;;;;5059486;28;20209;-66
2022/03/28 00:26:07;;;;;;;13.07;8.60;;;;;;;;;;5060084;28;20217;-66
2022/03/28 00:28:33;;;;;;;12.70;8.90;;;;;;;;;;5059875;28;20213;-66
2022/03/28 00:30:59;;;;;;;15.45;9.32;;;;;;;;;;5059725;28;20228;-66
2022/03/28 00:33:25;;;;;;;17.60;9.50;;;;;;;;;;5059359;28;20209;-66
2022/03/28 00:35:53;;;;;;;11.15;8.80;;;;;;;;;;5059832;28;20213;-66
2022/03/28 00:38:19;;;;;;;14.98;9.65;;;;;;;;;;5059566;28;20251;-66
2022/03/28 00:40:45;;;;;;;16.17;9.13;;;;;;;;;;5059709;28;20205;-66
2022/03/28 00:43:12;;;;;;;18.33;9.90;;;;;;;;;;5059460;28;20251;-66
2022/03/28 00:45:39;;;;;;;17.85;9.90;;;;;;;;;;5059464;28;20216;-66
2022/03/28 00:48:06;;;;;;;18.38;10.27;;;;;;;;;;5059390;28;20209;-66
2022/03/28 00:50:32;;;;;;;11.85;9.50;;;;;;;;;;5059560;28;20229;-66
2022/03/28 00:53:00;;;;;;;17.92;10.15;;;;;;;;;;5059453;28;20434;-66
2022/03/28 00:55:27;;;;;;;19.23;10.05;;;;;;;;;;5059309;28;20209;-66
2022/03/28 00:57:53;;;;;;;16.23;10.00;;;;;;;;;;5059103;28;20205;-66
2022/03/28 01:00:21;;;;;;;18.48;10.07;;;;;;;;;;5059230;28;20205;-66
2022/03/28 01:02:47;;;;;;;16.63;9.90;;;;;;;;;;5059059;28;20466;-66
2022/03/28 01:05:14;;;;;;;15.48;9.90;;;;;;;;;;5058828;28;20229;-66
2022/03/28 01:07:41;;;;;;;17.42;10.43;;;;;;;;;;5059028;28;20443;-66
2022/03/28 01:10:10;;;;;;;19.20;9.73;;;;;;;;;;5058989;28;20225;-66
2022/03/28 01:12:37;;;;;;;17.17;9.95;;;;;;;;;;5058993;28;20236;-66
2022/03/28 01:15:04;;;;;;;13.68;9.48;;;;;;;;;;5058812;28;20220;-66
2022/03/28 01:20:14;;;;;;;14.63;9.43;;;;;;;;;;5059089;28;20483;-66
2022/03/28 01:22:42;;;;;;;17.75;10.40;;;;;;;;;;5058720;28;20209;-66
2022/03/28 01:25:09;;;;;;;15.05;9.75;;;;;;;;;;5057811;28;20263;-66
2022/03/28 01:27:36;;;;;;;15.98;9.50;;;;;;;;;;5058739;28;20217;-66
2022/03/28 01:30:02;;;;;;;17.75;10.55;;;;;;;;;;5058869;28;20225;-66
2022/03/28 01:32:29;;;;;;;16.58;10.15;;;;;;;;;;5058505;28;20209;-66
2022/03/28 01:34:55;;;;;;;15.77;9.45;;;;;;;;;;5058621;28;20213;-66
2022/03/28 01:37:21;;;;;;;16.88;10.48;;;;;;;;;;5058750;28;20251;-66
2022/03/28 01:39:49;;;;;;;19.90;10.80;;;;;;;;;;5058945;28;20197;-66
2022/03/28 01:42:15;;;;;;;19.02;10.23;;;;;;;;;;5058398;28;20440;-66
2022/03/28 01:44:41;;;;;;;20.13;10.60;;;;;;;;;;5058028;28;20528;-66
2022/03/28 01:47:08;;;;;;;17.15;10.60;;;;;;;;;;5058247;28;20540;-66
2022/03/28 01:49:34;;;;;;;16.58;10.10;;;;;;;;;;5058113;28;20582;-66
2022/03/28 01:52:00;;;;;;;16.88;10.38;;;;;;;;;;5058181;28;20532;-66
2022/03/28 01:54:27;;;;;;;17.13;10.23;;;;;;;;;;5057749;28;20217;-66
2022/03/28 01:56:54;;;;;;;19.15;10.77;;;;;;;;;;5057144;28;20412;-66
2022/03/28 01:59:21;;;;;;;17.25;10.90;;;;;;;;;;5064153;28;20427;-66
2022/03/28 02:01:47;;;;;;;17.60;10.52;;;;;;;;;;5078437;28;20504;-66
2022/03/28 02:04:13;;;;;;;16.45;9.73;;;;;;;;;;5078119;28;20208;-66
2022/03/28 02:06:40;;;;;;;17.15;9.98;;;;;;;;;;5073751;28;20225;-66
2022/03/28 02:09:06;;;;;;;15.27;10.32;;;;;;;;;;5057300;28;20209;-66
2022/03/28 02:11:34;;;;;;;17.00;10.35;;;;;;;;;;5057578;28;20252;-66
2022/03/28 02:14:01;;;;;;;18.92;11.10;;;;;;;;;;5057717;28;20278;-66
2022/03/28 02:16:28;;;;;;;15.80;10.35;;;;;;;;;;5057610;28;20251;-66
2022/03/28 02:18:54;;;;;;;18.98;10.07;;;;;;;;;;5057852;28;20213;-66
2022/03/28 02:21:20;;;;;;;22.05;11.27;;;;;;;;;;5057865;28;20470;-66
2022/03/28 02:23:46;;;;;;;14.63;9.93;;;;;;;;;;5057150;28;20450;-66
2022/03/28 02:26:14;;;;;;;20.25;10.25;;;;;;;;;;5058082;28;20627;-66
2022/03/28 02:28:40;;;;;;;12.90;10.02;;;;;;;;;;5057929;28;20236;-66
2022/03/28 02:31:10;;;;;;;15.55;10.32;;;;;;;;;;5057682;28;20259;-66
2022/03/28 02:33:36;;;;;;;18.30;10.27;;;;;;;;;;5057211;28;20532;-66
2022/03/28 02:36:02;;;;;;;14.30;10.00;;;;;;;;;;5057389;28;20213;-66
2022/03/28 02:38:28;;;;;;;18.95;10.63;;;;;;;;;;5057321;28;20508;-66
2022/03/28 02:40:55;;;;;;;13.82;9.77;;;;;;;;;;5057470;28;20209;-66
2022/03/28 02:43:22;;;;;;;18.45;11.45;;;;;;;;;;5057051;28;20209;-66
2022/03/28 02:45:49;;;;;;;17.95;10.52;;;;;;;;;;5057134;28;20209;-66
2022/03/28 02:48:16;;;;;;;14.90;10.52;;;;;;;;;;5056996;28;20539;-66
2022/03/28 02:50:43;;;;;;;19.00;10.43;;;;;;;;;;5057353;28;20564;-66
2022/03/28 02:53:09;;;;;;;14.20;10.70;;;;;;;;;;5056742;28;20213;-66
2022/03/28 02:55:35;;;;;;;18.98;10.90;;;;;;;;;;5057565;28;20209;-66
2022/03/28 02:58:02;;;;;;;20.30;10.93;;;;;;;;;;5057158;28;20201;-66
2022/03/28 03:00:28;;;;;;;15.60;10.30;;;;;;;;;;5057238;28;20233;-66
2022/03/28 03:02:54;;;;;;;15.77;10.57;;;;;;;;;;5056978;28;20213;-66
2022/03/28 03:05:23;;;;;;;21.98;11.02;;;;;;;;;;5056690;28;20225;-66
2022/03/28 03:07:49;;;;;;;18.48;11.30;;;;;;;;;;5056894;28;20454;-66
2022/03/28 03:10:15;;;;;;;17.10;10.32;;;;;;;;;;5057014;28;20225;-66
2022/03/28 03:12:41;;;;;;;17.88;10.73;;;;;;;;;;5056822;28;20419;-66
2022/03/28 03:15:08;;;;;;;15.77;10.25;;;;;;;;;;5056860;28;20433;-66
2022/03/28 03:17:34;;;;;;;20.23;10.27;;;;;;;;;;5056434;28;20255;-66
2022/03/28 03:20:01;;;;;;;15.05;10.18;;;;;;;;;;5056955;28;20211;-66
2022/03/28 03:22:28;;;;;;;16.02;10.18;;;;;;;;;;5056805;28;20212;-66
2022/03/28 03:24:55;;;;;;;20.17;10.23;;;;;;;;;;5056394;28;20221;-66
2022/03/28 03:27:21;;;;;;;18.83;10.40;;;;;;;;;;5056406;28;20624;-66
2022/03/28 03:29:48;;;;;;;17.13;10.30;;;;;;;;;;5056494;28;20578;-66
2022/03/28 03:32:14;;;;;;;15.23;10.07;;;;;;;;;;5056503;28;20209;-66
2022/03/28 03:34:41;;;;;;;25.35;14.15;;;;;;;;;;5056186;28;20244;-66
2022/03/28 03:37:07;;;;;;;18.30;11.15;;;;;;;;;;5056464;28;20208;-66
2022/03/28 03:39:36;;;;;;;18.63;10.63;;;;;;;;;;5056575;28;20251;-66
2022/03/28 03:42:02;;;;;;;20.00;10.90;;;;;;;;;;5056532;28;20576;-66
2022/03/28 03:44:29;;;;;;;19.17;10.82;;;;;;;;;;5056326;28;20209;-66
2022/03/28 03:46:55;;;;;;;18.92;11.07;;;;;;;;;;5056785;28;20209;-66
2022/03/28 03:49:21;;;;;;;17.13;10.40;;;;;;;;;;5062208;28;20209;-66
2022/03/28 03:51:48;;;;;;;21.35;11.23;;;;;;;;;;5063136;28;20327;-66
2022/03/28 03:54:14;;;;;;;22.17;11.68;;;;;;;;;;5062838;28;20209;-66
2022/03/28 03:56:42;;;;;;;18.10;10.13;;;;;;;;;;5062561;28;20238;-66
2022/03/28 03:59:08;;;;;;;25.83;11.68;;;;;;;;;;5062965;28;20254;-66
2022/03/28 04:01:34;;;;;;;21.65;10.50;;;;;;;;;;5063042;28;20263;-66
2022/03/28 04:04:01;;;;;;;21.02;10.98;;;;;;;;;;5062366;28;20251;-66
2022/03/28 04:06:27;;;;;;;20.65;11.98;;;;;;;;;;5062685;28;20498;-66
2022/03/28 04:08:53;;;;;;;20.38;11.65;;;;;;;;;;5063015;28;20395;-66
2022/03/28 04:11:19;;;;;;;18.08;10.60;;;;;;;;;;5063206;28;20548;-66
2022/03/28 04:13:47;;;;;;;16.20;9.90;;;;;;;;;;5062648;28;20227;-66
2022/03/28 04:16:13;;;;;;;24.15;10.98;;;;;;;;;;5062558;28;20532;-66
2022/03/28 04:18:39;;;;;;;18.52;10.88;;;;;;;;;;5062576;28;20208;-66
2022/03/28 04:21:06;;;;;;;17.95;10.70;;;;;;;;;;5062952;28;20251;-66
2022/03/28 04:23:32;;;;;;;22.52;11.35;;;;;;;;;;5062580;28;20209;-66
2022/03/28 04:25:58;;;;;;;21.15;11.57;;;;;;;;;;5062591;28;20239;-66
2022/03/28 04:28:24;;;;;;;22.15;11.18;;;;;;;;;;5062886;28;20209;-66
2022/03/28 04:30:52;;;;;;;18.13;11.07;;;;;;;;;;5062617;28;20271;-66
2022/03/28 04:33:19;;;;;;;18.85;11.25;;;;;;;;;;5062527;28;20255;-66
2022/03/28 04:35:46;;;;;;;21.58;11.52;;;;;;;;;;5063290;28;20300;-66
2022/03/28 04:38:12;;;;;;;25.02;11.07;;;;;;;;;;5063016;28;20209;-66
2022/03/28 04:40:38;;;;;;;24.02;11.93;;;;;;;;;;5062809;28;20258;-66
2022/03/28 04:43:05;;;;;;;20.67;11.18;;;;;;;;;;5062390;28;20246;-66
2022/03/28 04:45:32;;;;;;;16.67;11.35;;;;;;;;;;5062286;28;20223;-66
2022/03/28 04:48:00;;;;;;;19.38;10.68;;;;;;;;;;5062395;28;20244;-66
2022/03/28 04:50:26;;;;;;;21.83;11.00;;;;;;;;;;5062717;28;20229;-66
2022/03/28 04:52:53;;;;;;;24.90;12.52;;;;;;;;;;5062157;28;20509;-67
2022/03/28 04:55:19;;;;;;;23.23;13.43;;;;;;;;;;5062308;28;20217;-67
2022/03/28 04:57:45;;;;;;;25.83;13.90;;;;;;;;;;5062201;28;20437;-67
2022/03/28 05:00:12;;;;;;;20.85;12.15;;;;;;;;;;5059142;28;20443;-67
2022/03/28 05:02:38;;;;;;;20.27;10.85;;;;;;;;;;5059660;28;20213;-67
2022/03/28 05:05:07;;;;;;;23.02;12.27;;;;;;;;;;5058997;28;20225;-67
2022/03/28 05:07:34;;;;;;;24.40;12.40;;;;;;;;;;5059323;28;20548;-67
2022/03/28 05:10:01;;;;;;;18.98;11.25;;;;;;;;;;5059534;28;20209;-67
2022/03/28 05:12:27;;;;;;;21.50;11.75;;;;;;;;;;5058976;28;20220;-67
2022/03/28 05:14:54;;;;;;;27.73;11.63;;;;;;;;;;5058865;28;20212;-67
2022/03/28 05:17:21;;;;;;;19.60;11.05;;;;;;;;;;5058864;28;20526;-67
2022/03/28 05:19:47;;;;;;;21.20;12.20;;;;;;;;;;5059019;28;20231;-67
2022/03/28 05:22:22;;;;;;;21.17;11.00;;;;;;;;;;5059046;28;20251;-67
2022/03/28 05:24:49;;;;;;;23.05;11.93;;;;;;;;;;5058951;28;20216;-66
2022/03/28 05:27:16;;;;;;;23.55;11.52;;;;;;;;;;5058473;28;20209;-67
2022/03/28 05:29:42;;;;;;;20.30;11.35;;;;;;;;;;5059058;28;20451;-67
2022/03/28 05:32:09;;;;;;;24.20;11.23;;;;;;;;;;5058692;28;20225;-67
2022/03/28 05:34:35;;;;;;;20.05;11.45;;;;;;;;;;5058518;28;20441;-67
2022/03/28 05:37:03;;;;;;;22.98;11.52;;;;;;;;;;5058983;28;20548;-67
2022/03/28 05:39:32;;;;;;;20.30;11.80;;;;;;;;;;5058998;28;20213;-67
2022/03/28 05:41:58;;;;;;;24.13;11.75;;;;;;;;;;5058695;28;20209;-66
2022/03/28 05:44:25;;;;;;;21.30;10.98;;;;;;;;;;5058307;28;20285;-67
2022/03/28 05:46:51;;;;;;;20.65;11.90;;;;;;;;;;5058265;28;20208;-67
2022/03/28 05:49:18;;;;;;;18.52;11.65;;;;;;;;;;5058624;28;20244;-67
2022/03/28 05:51:44;;;;;;;21.90;11.40;;;;;;;;;;5058308;28;20585;-67
2022/03/28 05:54:12;;;;;;;19.88;10.85;;;;;;;;;;5058001;28;20235;-67
2022/03/28 05:56:40;;;;;;;23.25;11.98;;;;;;;;;;5058119;28;20671;-67
2022/03/28 05:59:07;;;;;;;23.90;11.55;;;;;;;;;;5058402;28;20209;-67
2022/03/28 06:01:33;;;;;;;28.33;11.98;;;;;;;;;;5058259;28;20205;-67
2022/03/28 06:04:00;;;;;;;32.55;12.25;;;;;;;;;;5058159;28;20213;-67
2022/03/28 06:06:26;;;;;;;24.13;11.45;;;;;;;;;;5058302;28;20461;-67
2022/03/28 06:08:52;;;;;;;22.10;12.23;;;;;;;;;;5058039;28;20520;-67
2022/03/28 06:11:19;;;;;;;30.65;12.90;;;;;;;;;;5057476;28;20224;-67
2022/03/28 06:13:46;;;;;;;31.63;14.52;;;;;;;;;;5057351;28;20205;-66
2022/03/28 06:16:12;;;;;;;39.13;13.70;;;;;;;;;;5057735;28;20266;-67
2022/03/28 06:18:39;;;;;;;25.67;12.20;;;;;;;;;;5057915;28;20209;-67
2022/03/28 06:21:05;;;;;;;23.75;12.80;;;;;;;;;;5057863;28;20267;-67
2022/03/28 06:23:31;;;;;;;25.55;12.82;;;;;;;;;;5057233;28;20213;-67
2022/03/28 06:25:57;;;;;;;25.90;12.63;;;;;;;;;;5057294;28;20224;-67
2022/03/28 06:28:24;;;;;;;22.15;11.65;;;;;;;;;;5057756;28;20292;-67
2022/03/28 06:30:51;;;;;;;29.70;12.90;;;;;;;;;;5057663;28;20209;-67
2022/03/28 06:33:17;;;;;;;24.38;11.38;;;;;;;;;;5057537;28;20212;-67
2022/03/28 06:35:45;;;;;;;25.73;12.77;;;;;;;;;;5057473;28;20235;-67
2022/03/28 06:38:11;;;;;;;23.63;12.18;;;;;;;;;;5057444;28;20280;-67
2022/03/28 06:40:37;;;;;;;20.38;11.68;;;;;;;;;;5057383;28;20213;-67
2022/03/28 06:43:04;;;;;;;23.42;12.43;;;;;;;;;;5057180;28;20539;-67
2022/03/28 06:45:30;;;;;;;30.05;12.82;;;;;;;;;;5057138;28;20570;-67
2022/03/28 06:47:58;;;;;;;26.65;12.82;;;;;;;;;;5057257;28;20213;-67
2022/03/28 06:50:25;;;;;;;27.60;12.40;;;;;;;;;;5057228;28;20400;-67
2022/03/28 06:52:52;;;;;;;29.70;13.20;;;;;;;;;;5057063;28;20358;-58
2022/03/28 06:55:18;;;;;;;18.15;11.90;;;;;;;;;;5056149;28;20380;-57
2022/03/28 06:57:45;;;;;;;24.70;12.50;;;;;;;;;;5057254;28;20205;-58
2022/03/28 07:00:12;;;;;;;25.42;12.05;;;;;;;;;;5056605;28;20213;-56
2022/03/28 07:02:39;;;;;;;29.45;12.02;;;;;;;;;;5056591;28;20219;-58
2022/03/28 07:05:07;;;;;;;22.35;12.25;;;;;;;;;;5056318;28;20459;-57
2022/03/28 07:07:40;;;;;;;24.77;12.10;;;;;;;;;;5056652;28;20451;-57
2022/03/28 07:10:07;;;;;;;21.60;11.77;;;;;;;;;;5056922;28;20224;-57
2022/03/28 07:12:33;;;;;;;23.40;13.32;;;;;;;;;;5056641;28;20279;-58
2022/03/28 07:15:00;;;;;;;21.02;12.63;;;;;;;;;;5056422;28;20255;-58
2022/03/28 07:17:26;;;;;;;23.27;12.93;;;;;;;;;;5056283;28;20255;-57
2022/03/28 07:19:52;;;;;;;19.40;12.68;;;;;;;;;;5056620;28;20525;-57
2022/03/28 07:22:20;;;;;;;24.48;11.85;;;;;;;;;;5056049;28;20212;-57
2022/03/28 07:24:46;;;;;;;23.65;12.07;;;;;;;;;;5055749;28;20216;-57
2022/03/28 07:27:12;;;;;;;31.50;12.55;;;;;;;;;;5055511;28;20209;-57
2022/03/28 07:29:38;;;;;;;22.80;12.15;;;;;;;;;;5056200;28;20205;-58
2022/03/28 07:32:05;;;;;;;20.17;12.32;;;;;;;;;;5055628;28;20253;-58
2022/03/28 07:34:32;;;;;;;18.20;12.05;;;;;;;;;;5056598;28;20453;-57
2022/03/28 07:36:59;;;;;;;21.55;12.18;;;;;;;;;;5056170;28;20292;-57
2022/03/28 07:39:27;;;;;;;21.02;11.60;;;;;;;;;;5055939;28;20251;-57
2022/03/28 07:41:53;;;;;;;22.38;13.10;;;;;;;;;;5055868;28;20262;-57
2022/03/28 07:44:19;;;;;;;26.50;12.50;;;;;;;;;;5055152;28;20255;-58
2022/03/28 07:46:46;;;;;;;26.58;12.68;;;;;;;;;;5055119;28;20213;-56
2022/03/28 07:49:12;;;;;;;21.75;12.55;;;;;;;;;;5055719;28;20223;-58
2022/03/28 07:51:39;;;;;;;23.33;12.45;;;;;;;;;;5055309;28;20232;-58
2022/03/28 07:54:05;;;;;;;21.92;12.38;;;;;;;;;;5055618;28;20209;-57
2022/03/28 07:56:33;;;;;;;23.92;11.88;;;;;;;;;;5055879;28;20240;-58
2022/03/28 07:59:00;;;;;;;23.50;13.30;;;;;;;;;;5055672;28;20215;-58
2022/03/28 08:01:26;;;;;;;23.55;12.73;;;;;;;;;;5055129;28;20220;-57
2022/03/28 08:03:53;;;;;;;25.35;12.85;;;;;;;;;;5055008;28;20248;-58
2022/03/28 08:06:19;;;;;;;20.63;12.02;;;;;;;;;;5054887;28;20484;-58
2022/03/28 08:08:46;;;;;;;29.77;13.88;;;;;;;;;;5055420;28;20208;-58
2022/03/28 08:11:12;;;;;;;27.45;13.15;;;;;;;;;;5069118;28;20254;-57
2022/03/28 08:13:40;;;;;;;26.10;13.68;;;;;;;;;;5075252;28;20212;-58
2022/03/28 08:16:06;;;;;;;25.35;13.10;;;;;;;;;;5075345;28;20547;-58
2022/03/28 08:18:36;;;;;;;27.27;13.18;;;;;;;;;;5075690;28;20215;-59
2022/03/28 08:21:02;;;;;;;22.83;12.95;;;;;;;;;;5075822;28;20585;-57
2022/03/28 08:23:28;;;;;;;22.45;13.10;;;;;;;;;;5075819;28;20287;-58
2022/03/28 08:25:54;;;;;;;22.90;12.82;;;;;;;;;;5075535;28;20238;-59
2022/03/28 08:28:20;;;;;;;23.27;14.07;;;;;;;;;;5075461;28;20528;-58
2022/03/28 08:30:48;;;;;;;23.17;14.18;;;;;;;;;;5075668;28;20212;-57
2022/03/28 08:33:14;;;;;;;25.00;13.40;;;;;;;;;;5075091;28;20269;-58
2022/03/28 08:35:42;;;;;;;22.08;12.85;;;;;;;;;;5078542;28;20274;-59
2022/03/28 08:38:08;;;;;;;26.08;13.98;;;;;;;;;;5071766;28;20209;-57
2022/03/28 08:40:34;;;;;;;28.55;13.90;;;;;;;;;;5059045;28;20209;-59
2022/03/28 08:43:03;;;;;;;21.92;12.70;;;;;;;;;;5058700;28;20312;-58
2022/03/28 08:45:29;;;;;;;22.30;11.98;;;;;;;;;;5058784;28;20209;-58
2022/03/28 08:47:58;;;;;;;20.60;13.15;;;;;;;;;;5058884;28;20214;-59
2022/03/28 08:50:24;;;;;;;27.67;13.40;;;;;;;;;;5058711;28;20511;-58
2022/03/28 08:52:50;;;;;;;22.92;12.77;;;;;;;;;;5058436;28;20275;-58
2022/03/28 08:55:17;;;;;;;26.27;13.30;;;;;;;;;;5058132;28;20213;-57
2022/03/28 08:57:43;;;;;;;24.75;13.27;;;;;;;;;;5058318;28;20232;-57
2022/03/28 09:00:11;;;;;;;33.65;13.65;;;;;;;;;;5058716;28;20622;-57
2022/03/28 09:02:41;;;;;;;29.45;13.65;;;;;;;;;;5058673;28;20243;-58
2022/03/28 09:05:09;;;;;;;24.65;13.13;;;;;;;;;;5057646;28;20583;-57
2022/03/28 09:07:36;;;;;;;20.08;13.05;;;;;;;;;;5058319;28;20575;-56
2022/03/28 09:10:03;;;;;;;28.95;15.52;;;;;;;;;;5058085;28;20259;-57
2022/03/28 09:12:29;;;;;;;25.58;13.40;;;;;;;;;;5058370;28;20229;-58
2022/03/28 09:14:57;;;;;;;29.85;14.95;;;;;;;;;;5058412;28;20263;-57
2022/03/28 09:17:23;;;;;;;23.17;14.40;;;;;;;;;;5058367;28;20275;-58
2022/03/28 09:19:52;;;;;;;26.73;14.23;;;;;;;;;;5058274;28;20477;-57
2022/03/28 09:22:20;;;;;;;21.02;12.48;;;;;;;;;;5058518;28;20227;-57
2022/03/28 09:24:47;;;;;;;23.40;13.38;;;;;;;;;;5073960;28;20215;-56
2022/03/28 09:27:15;;;;;;;20.63;12.80;;;;;;;;;;5078240;28;20535;-58
2022/03/28 09:29:54;;;;;;;24.52;14.00;;;;;;;;;;5077996;28;20215;-56
2022/03/28 09:32:21;;;;;;;30.05;14.25;;;;;;;;;;5077656;28;20508;-59
2022/03/28 09:35:00;;;;;;;32.55;14.63;;;;;;;;;;5058002;28;20216;-59
2022/03/28 09:37:28;;;;;;;23.65;14.07;;;;;;;;;;5057596;28;20213;-57
2022/03/28 09:39:54;;;;;;;22.95;14.50;;;;;;;;;;5057695;28;20525;-59
2022/03/28 09:42:21;;;;;;;28.25;14.35;;;;;;;;;;5057227;28;20524;-56
2022/03/28 09:44:48;;;;;;;31.58;14.60;;;;;;;;;;5057123;28;20533;-58
2022/03/28 09:47:16;;;;;;;23.75;14.68;;;;;;;;;;5057028;28;20404;-60
2022/03/28 09:49:44;;;;;;;29.92;15.40;;;;;;;;;;5057826;28;20247;-60
2022/03/28 09:52:11;;;;;;;28.25;15.30;;;;;;;;;;5055400;28;20228;-60
2022/03/28 09:54:45;;;;;;;24.48;14.13;;;;;;;;;;5057458;28;20213;-60
2022/03/28 09:57:13;;;;;;;28.63;14.57;;;;;;;;;;5057233;28;20582;-59
2022/03/28 09:59:40;;;;;;;21.90;13.48;;;;;;;;;;5057841;28;20217;-60
2022/03/28 10:02:20;;;;;;;25.25;14.35;;;;;;;;;;5057314;28;20205;-60
2022/03/28 10:04:47;;;;;;;26.02;14.52;;;;;;;;;;5057001;28;20209;-59
2022/03/28 10:07:13;;;;;;;29.05;14.52;;;;;;;;;;5057044;28;20280;-57
2022/03/28 10:09:40;;;;;;;27.27;15.52;;;;;;;;;;5057451;28;20533;-58
2022/03/28 10:12:08;;;;;;;25.15;14.38;;;;;;;;;;5057669;28;20228;-57
2022/03/28 10:14:34;;;;;;;22.80;14.63;;;;;;;;;;5057596;28;20251;-58
2022/03/28 10:17:02;;;;;;;32.50;15.20;;;;;;;;;;5056924;28;20221;-58
2022/03/28 10:19:28;;;;;;;30.02;14.18;;;;;;;;;;5057807;28;20213;-58
2022/03/28 10:21:55;;;;;;;24.70;14.13;;;;;;;;;;5057483;28;20232;-58
2022/03/28 10:24:24;;;;;;;30.40;16.08;;;;;;;;;;5057256;28;20247;-57
2022/03/28 10:26:52;;;;;;;33.05;15.95;;;;;;;;;;5057311;28;20204;-57
2022/03/28 10:29:21;;;;;;;26.80;15.18;;;;;;;;;;5057460;28;20215;-57
2022/03/28 10:31:55;;;;;;;30.83;17.02;;;;;;;;;;5057476;28;20416;-58
2022/03/28 10:34:40;;;;;;;24.58;14.40;;;;;;;;;;5057173;28;20232;-58
2022/03/28 10:37:24;;;;;;;25.45;14.70;;;;;;;;;;5057580;28;20303;-57
2022/03/28 10:39:50;;;;;;;24.85;14.60;;;;;;;;;;5057409;28;20246;-58
2022/03/28 10:42:18;;;;;;;30.55;15.45;;;;;;;;;;5057391;28;20205;-59
2022/03/28 10:44:47;;;;;;;24.15;14.63;;;;;;;;;;5057006;28;20310;-57
2022/03/28 10:47:14;;;;;;;31.38;14.98;;;;;;;;;;5057209;28;20428;-57
2022/03/28 10:49:42;;;;;;;27.02;14.30;;;;;;;;;;5057118;28;20209;-57
2022/03/28 10:52:11;;;;;;;26.05;15.20;;;;;;;;;;5056976;28;20208;-57
2022/03/28 10:54:38;;;;;;;26.08;15.38;;;;;;;;;;5056527;28;20255;-62
2022/03/28 10:57:04;;;;;;;27.48;17.05;;;;;;;;;;5056002;28;20444;-68
2022/03/28 10:59:31;;;;;;;24.85;15.10;;;;;;;;;;5036609;28;20244;-68
2022/03/28 11:01:59;;;;;;;23.63;14.95;;;;;;;;;;5036831;28;20210;-69
2022/03/28 11:04:26;;;;;;;27.00;15.45;;;;;;;;;;5036699;28;20264;-69
2022/03/28 11:06:59;;;;;;;24.13;14.13;;;;;;;;;;5036604;28;20549;-69
2022/03/28 11:09:44;;;;;;;26.25;16.25;;;;;;;;;;5037137;28;20209;-69
2022/03/28 11:12:11;;;;;;;25.45;15.02;;;;;;;;;;5036720;28;20209;-68
2022/03/28 11:14:38;;;;;;;24.80;14.43;;;;;;;;;;5036443;28;20529;-69
2022/03/28 11:17:14;;;;;;;31.52;15.25;;;;;;;;;;5036766;28;20542;-69
2022/03/28 11:19:51;;;;;;;27.02;15.52;;;;;;;;;;5036699;28;20255;-69
2022/03/28 11:22:17;;;;;;;25.77;14.57;;;;;;;;;;5037011;28;20209;-69
2022/03/28 11:24:52;;;;;;;25.15;14.85;;;;;;;;;;5036297;28;20271;-69
2022/03/28 11:27:19;;;;;;;22.40;13.13;;;;;;;;;;5036808;28;20212;-69
2022/03/28 11:29:45;;;;;;;25.23;14.95;;;;;;;;;;5036347;28;20245;-69
2022/03/28 11:32:14;;;;;;;21.95;15.05;;;;;;;;;;5036487;28;20268;-69
2022/03/28 11:34:41;;;;;;;25.25;15.05;;;;;;;;;;5036031;28;20604;-69
2022/03/28 11:37:07;;;;;;;22.02;14.60;;;;;;;;;;5036276;28;20572;-69
2022/03/28 11:39:48;;;;;;;24.92;15.23;;;;;;;;;;5036294;28;20213;-69
2022/03/28 11:42:15;;;;;;;28.38;14.65;;;;;;;;;;5036222;28;20213;-69
2022/03/28 11:44:41;;;;;;;22.00;14.20;;;;;;;;;;5035785;28;20216;-69
2022/03/28 11:47:09;;;;;;;29.52;14.93;;;;;;;;;;5036070;28;20209;-69
2022/03/28 11:49:51;;;;;;;21.25;13.68;;;;;;;;;;5036385;28;20213;-69
2022/03/28 11:52:18;;;;;;;25.83;14.30;;;;;;;;;;5036355;28;20252;-69
2022/03/28 11:54:45;;;;;;;22.02;14.55;;;;;;;;;;5035825;28;20213;-69
2022/03/28 12:00:16;;;;;;;18.02;13.13;;;;;;;;;;5031699;28;20243;-69
2022/03/28 12:02:49;;;;;;;20.60;13.82;;;;;;;;;;5056068;28;20205;-69
2022/03/28 12:05:25;;;;;;;17.52;13.40;;;;;;;;;;5055672;28;20245;-69
2022/03/28 12:07:52;;;;;;;22.38;14.00;;;;;;;;;;5055711;28;20208;-69
2022/03/28 12:10:18;;;;;;;19.77;13.25;;;;;;;;;;5058552;28;20215;-69
2022/03/28 12:12:44;;;;;;;25.40;14.15;;;;;;;;;;5059778;28;20396;-69
2022/03/28 12:15:11;;;;;;;16.88;12.60;;;;;;;;;;5059770;28;20438;-69
2022/03/28 12:17:37;;;;;;;24.60;12.88;;;;;;;;;;5059120;28;20205;-68
2022/03/28 12:20:05;;;;;;;25.10;12.73;;;;;;;;;;5058362;28;20531;-68
2022/03/28 12:22:43;;;;;;;22.90;13.52;;;;;;;;;;5059013;28;20642;-68
2022/03/28 12:25:09;;;;;;;18.30;13.48;;;;;;;;;;5059228;28;20242;-69
2022/03/28 12:27:35;;;;;;;17.33;13.05;;;;;;;;;;5059476;28;20197;-69
2022/03/28 12:30:02;;;;;;;21.33;13.80;;;;;;;;;;5058975;28;20209;-69
2022/03/28 12:32:28;;;;;;;20.48;12.88;;;;;;;;;;5058607;28;20548;-69
2022/03/28 12:34:54;;;;;;;22.35;13.75;;;;;;;;;;5058836;28;20554;-69
2022/03/28 12:37:21;;;;;;;19.85;13.05;;;;;;;;;;5058634;28;20254;-68
2022/03/28 12:39:49;;;;;;;27.15;14.73;;;;;;;;;;5059125;28;20515;-69
2022/03/28 12:42:25;;;;;;;24.02;14.57;;;;;;;;;;5058962;28;20208;-69
2022/03/28 12:44:53;;;;;;;21.40;13.52;;;;;;;;;;5058662;28;20436;-69
2022/03/28 12:47:19;;;;;;;25.17;15.73;;;;;;;;;;5059002;28;20516;-69
2022/03/28 12:49:46;;;;;;;28.25;14.35;;;;;;;;;;5059335;28;20574;-68
2022/03/28 12:52:14;;;;;;;29.00;15.00;;;;;;;;;;5058502;28;20209;-68
2022/03/28 12:54:42;;;;;;;23.23;15.23;;;;;;;;;;5058307;28;20278;-69
2022/03/28 12:57:10;;;;;;;27.52;14.70;;;;;;;;;;5058251;28;20209;-69
2022/03/28 12:59:37;;;;;;;24.10;14.35;;;;;;;;;;5059004;28;20208;-69
2022/03/28 13:02:07;;;;;;;35.28;15.40;;;;;;;;;;5058877;28;20208;-68
2022/03/28 13:04:42;;;;;;;22.58;15.75;;;;;;;;;;5058519;28;20516;-69
2022/03/28 13:07:08;;;;;;;32.58;15.48;;;;;;;;;;5057837;28;20212;-68
2022/03/28 13:09:34;;;;;;;28.73;16.75;;;;;;;;;;5058699;28;20209;-69
2022/03/28 13:12:07;;;;;;;28.55;16.60;;;;;;;;;;5058661;28;20209;-69
2022/03/28 13:14:35;;;;;;;25.33;16.92;;;;;;;;;;5058324;28;20252;-69
2022/03/28 13:17:05;;;;;;;25.70;16.58;;;;;;;;;;5058682;28;20440;-69
2022/03/28 13:19:31;;;;;;;25.42;16.15;;;;;;;;;;5058896;28;20211;-69
2022/03/28 13:21:58;;;;;;;32.67;17.30;;;;;;;;;;5057822;28;20230;-69
2022/03/28 13:24:28;;;;;;;29.42;17.40;;;;;;;;;;5058002;28;20246;-69
2022/03/28 13:28:01;;;;;;;27.13;16.38;;;;;;;;;;5058596;28;20363;-69
2022/03/28 13:29:42;;;;;;;24.88;15.68;;;;;;;;;;5058151;28;20284;-69
2022/03/28 13:32:08;;;;;;;30.30;15.23;;;;;;;;;;5058113;28;20279;-69
2022/03/28 13:34:34;;;;;;;29.48;15.48;;;;;;;;;;5057572;28;20228;-69
2022/03/28 13:37:05;;;;;;;23.88;14.93;;;;;;;;;;5058258;28;20255;-69
2022/03/28 13:39:32;;;;;;;25.33;16.00;;;;;;;;;;5058104;28;20228;-69
2022/03/28 13:41:59;;;;;;;23.02;14.88;;;;;;;;;;5058157;28;20208;-69
2022/03/28 13:44:25;;;;;;;27.75;16.02;;;;;;;;;;5057894;28;20569;-69
2022/03/28 13:46:53;;;;;;;35.08;16.45;;;;;;;;;;5058193;28;20560;-69
2022/03/28 13:49:19;;;;;;;23.13;15.43;;;;;;;;;;5057910;28;20328;-69
2022/03/28 13:51:45;;;;;;;24.85;15.25;;;;;;;;;;5057463;28;20213;-69
2022/03/28 13:54:11;;;;;;;23.52;14.50;;;;;;;;;;5057557;28;20237;-69
2022/03/28 13:56:38;;;;;;;20.90;13.68;;;;;;;;;;5057481;28;20584;-69
2022/03/28 13:59:05;;;;;;;30.63;16.30;;;;;;;;;;5057823;28;20503;-69
2022/03/28 14:01:32;;;;;;;27.58;15.73;;;;;;;;;;5057146;28;20227;-69
2022/03/28 14:04:00;;;;;;;24.60;14.77;;;;;;;;;;5057082;28;20225;-69
2022/03/28 14:06:27;;;;;;;20.80;14.15;;;;;;;;;;5057056;28;20540;-69
2022/03/28 14:08:54;;;;;;;24.10;13.90;;;;;;;;;;5057493;28;20243;-69
2022/03/28 14:11:21;;;;;;;27.20;13.13;;;;;;;;;;5057395;28;20439;-69
2022/03/28 14:13:48;;;;;;;25.63;13.30;;;;;;;;;;5057795;28;20220;-69
2022/03/28 14:16:15;;;;;;;26.17;13.20;;;;;;;;;;5057507;28;20212;-69
2022/03/28 14:18:42;;;;;;;23.52;13.00;;;;;;;;;;5057365;28;20234;-69
2022/03/28 14:21:09;;;;;;;18.02;12.32;;;;;;;;;;5057487;28;20540;-69
2022/03/28 14:23:36;;;;;;;20.95;11.68;;;;;;;;;;5057111;28;20204;-69
2022/03/28 14:26:02;;;;;;;19.92;12.32;;;;;;;;;;5056964;28;20287;-69